Time;durP1;ratioP1;P1;durP2;ratioP2;P2;SDS_P1;SDS_P2;PMS_P1;PMS_P2;Temp;Humidity;BMP_temperature;BMP_pressure;BME280_temperature;BME280_humidity;BME280_pressure;Samples;Min_cycle;Max_cycle;Signal;HPM_P1;HPM_P2
2022/06/07 00:00:31;;;;;;;;;;;;;;;14.99;61.82;100123.70;1718879;83;20201;-81
2022/06/07 00:03:34;;;;;;;;;;;;;;;14.98;61.77;100116.52;1722363;83;20242;-81
2022/06/07 00:06:40;;;;;;;;;;;;;;;14.98;61.73;100122.86;1722393;83;20243;-81
2022/06/07 00:09:44;;;;;;;;;;;;;;;14.97;61.66;100117.05;1722323;83;20373;-84
2022/06/07 00:12:48;;;;;;;;;;;;;;;14.96;61.79;100119.48;1722465;83;20726;-81
2022/06/07 00:15:54;;;;;;;;;;;;;;;14.96;61.97;100118.11;1717664;83;20219;-81
2022/06/07 00:18:58;;;;;;;;;;;;;;;14.95;62.10;100121.89;1716572;83;20211;-82
2022/06/07 00:22:03;;;;;;;;;;;;;;;14.92;62.13;100119.58;1718175;83;20636;-81
2022/06/07 00:25:06;;;;;;;;;;;;;;;14.89;62.42;100123.27;1717970;83;20640;-81
2022/06/07 00:28:12;;;;;;;;;;;;;;;14.88;62.58;100122.96;1717381;83;20227;-81
2022/06/07 00:31:16;;;;;;;;;;;;;;;14.87;62.69;100119.36;1716662;83;20684;-81
2022/06/07 00:34:14;;;;;;;;;;;;;;;14.85;62.69;100116.48;1717844;83;20644;-82
2022/06/07 00:37:17;;;;;;;;;;;;;;;14.84;62.76;100119.77;1717912;83;20243;-81
2022/06/07 00:40:22;;;;;;;;;;;;;;;14.83;62.94;100127.19;1716597;82;20252;-81
2022/06/07 00:43:30;;;;;;;;;;;;;;;14.82;62.96;100124.65;1714451;83;20268;-80
2022/06/07 00:46:33;;;;;;;;;;;;;;;14.82;63.01;100124.65;1713056;83;20203;-81
2022/06/07 00:49:42;;;;;;;;;;;;;;;14.82;62.97;100120.52;1712793;83;20235;-81
2022/06/07 00:52:46;;;;;;;;;;;;;;;14.79;63.12;100114.04;1697710;83;20677;-81
2022/06/07 00:55:50;;;;;;;;;;;;;;;14.78;63.25;100121.98;1712793;83;20231;-80
2022/06/07 00:58:55;;;;;;;;;;;;;;;14.77;63.26;100123.90;1713062;83;20705;-81
2022/06/07 01:01:59;;;;;;;;;;;;;;;14.77;63.32;100123.90;1714426;83;20263;-81
2022/06/07 01:05:08;;;;;;;;;;;;;;;14.76;63.48;100122.70;1714391;83;20243;-81
2022/06/07 01:11:35;;;;;;;;;;;;;;;14.74;63.66;100122.08;1714272;83;20680;-81
2022/06/07 01:14:40;;;;;;;;;;;;;;;14.73;63.74;100126.73;1714470;83;20247;-81
2022/06/07 01:17:46;;;;;;;;;;;;;;;14.73;63.81;100133.62;1714352;83;20239;-81
2022/06/07 01:20:53;;;;;;;;;;;;;;;14.71;63.86;100129.37;1713825;83;20235;-81
2022/06/07 01:23:59;;;;;;;;;;;;;;;14.68;63.92;100133.90;1714449;83;20203;-81
2022/06/07 01:27:04;;;;;;;;;;;;;;;14.64;63.98;100126.61;1714430;83;20700;-81
2022/06/07 01:30:11;;;;;;;;;;;;;;;14.62;64.08;100127.86;1714371;82;20223;-81
2022/06/07 01:33:14;;;;;;;;;;;;;;;14.59;64.17;100130.52;1714254;83;20223;-81
2022/06/07 01:36:16;;;;;;;;;;;;;;;14.59;64.22;100136.02;1713821;83;20231;-82
2022/06/07 01:42:42;;;;;;;;;;;;;;;14.51;64.12;100152.17;1722945;83;20667;-81
2022/06/07 01:45:46;;;;;;;;;;;;;;;14.43;64.45;100138.55;1751007;81;20670;-81
2022/06/07 01:48:53;;;;;;;;;;;;;;;14.36;64.73;100133.56;1757312;81;20225;-81
2022/06/07 01:51:59;;;;;;;;;;;;;;;14.38;65.00;100138.86;1757068;81;20235;-81
2022/06/07 01:55:04;;;;;;;;;;;;;;;14.42;64.98;100133.27;1758224;81;20745;-81
2022/06/07 01:58:11;;;;;;;;;;;;;;;14.55;64.84;100138.33;1757523;81;20240;-81
2022/06/07 02:01:16;;;;;;;;;;;;;;;14.83;64.34;100138.20;1729522;81;20310;-82
2022/06/07 02:04:23;;;;;;;;;;;;;;;15.17;63.55;100139.63;1727989;83;20226;-82
2022/06/07 02:07:26;;;;;;;;;;;;;;;15.54;62.71;100136.25;1727858;83;20242;-82
2022/06/07 02:10:32;;;;;;;;;;;;;;;16.05;61.43;100141.08;1726651;83;20226;-82
2022/06/07 02:13:39;;;;;;;;;;;;;;;16.57;59.71;100144.71;1728469;83;20226;-82
2022/06/07 02:16:44;;;;;;;;;;;;;;;16.95;58.23;100148.59;1761514;81;20236;-82
2022/06/07 02:19:51;;;;;;;;;;;;;;;17.32;57.20;100147.69;1760246;81;20271;-82
2022/06/07 02:22:56;;;;;;;;;;;;;;;17.71;55.95;100145.66;1761854;81;20657;-82
2022/06/07 02:26:09;;;;;;;;;;;;;;;18.10;54.52;100147.19;1761272;81;20220;-82
2022/06/07 02:29:29;;;;;;;;;;;;;;;18.49;53.45;100139.52;1756314;81;20252;-82
2022/06/07 02:32:36;;;;;;;;;;;;;;;18.99;51.94;100150.91;1728304;83;20267;-82
2022/06/07 02:35:43;;;;;;;;;;;;;;;19.37;50.69;100149.14;1726395;83;20226;-81
2022/06/07 02:38:47;;;;;;;;;;;;;;;19.68;49.74;100154.97;1726373;83;20239;-82
2022/06/07 02:41:53;;;;;;;;;;;;;;;19.94;48.99;100153.64;1725137;83;20254;-82
2022/06/07 02:45:00;;;;;;;;;;;;;;;20.19;48.23;100157.56;1727922;81;20202;-82
2022/06/07 02:48:04;;;;;;;;;;;;;;;20.44;47.82;100154.50;1727784;83;20297;-82
2022/06/07 02:51:11;;;;;;;;;;;;;;;20.75;47.00;100160.70;1728013;83;20247;-82
2022/06/07 02:54:16;;;;;;;;;;;;;;;20.93;46.46;100154.97;1700734;83;20211;-81
2022/06/07 02:57:19;;;;;;;;;;;;;;;21.06;46.38;100154.67;1727351;83;20211;-81
2022/06/07 03:00:25;;;;;;;;;;;;;;;21.34;45.82;100150.20;1726357;83;20215;-81
2022/06/07 03:03:28;;;;;;;;;;;;;;;21.60;45.26;100153.73;1727709;83;20246;-82
2022/06/07 03:06:32;;;;;;;;;;;;;;;21.90;44.81;100155.32;1727771;83;20186;-82
2022/06/07 03:09:37;;;;;;;;;;;;;;;22.16;44.37;100152.38;1726986;83;20499;-81
2022/06/07 03:12:41;;;;;;;;;;;;;;;22.41;43.78;100147.73;1727026;83;20183;-82
2022/06/07 03:15:48;;;;;;;;;;;;;;;22.49;43.40;100144.52;1727653;83;20243;-82
2022/06/07 03:18:51;;;;;;;;;;;;;;;22.48;43.35;100145.59;1726132;83;20206;-81
2022/06/07 03:21:57;;;;;;;;;;;;;;;22.46;43.18;100154.77;1727602;83;20269;-81
2022/06/07 03:25:08;;;;;;;;;;;;;;;22.42;43.34;100154.98;1728409;83;20215;-81
2022/06/07 03:28:15;;;;;;;;;;;;;;;22.45;43.46;100158.11;1727394;83;20227;-81
2022/06/07 03:31:22;;;;;;;;;;;;;;;22.47;43.29;100154.22;1726184;82;20223;-82
2022/06/07 03:34:28;;;;;;;;;;;;;;;22.34;43.45;100160.45;1699189;83;20255;-82
2022/06/07 03:37:32;;;;;;;;;;;;;;;22.28;43.42;100152.28;1727855;83;20210;-82
2022/06/07 03:40:44;;;;;;;;;;;;;;;22.26;43.89;100155.34;1727227;83;20613;-82
2022/06/07 03:43:48;;;;;;;;;;;;;;;22.29;43.62;100154.80;1719246;83;20255;-82
2022/06/07 03:46:54;;;;;;;;;;;;;;;22.32;43.85;100159.03;1715075;83;20227;-81
2022/06/07 03:49:59;;;;;;;;;;;;;;;22.40;43.78;100155.81;1713968;83;20200;-81
2022/06/07 03:53:03;;;;;;;;;;;;;;;22.34;43.34;100152.64;1712419;83;20235;-81
2022/06/07 03:56:08;;;;;;;;;;;;;;;22.13;43.70;100160.72;1714321;83;21166;-81
2022/06/07 03:59:14;;;;;;;;;;;;;;;22.01;43.94;100164.66;1714234;82;20227;-82
2022/06/07 04:02:18;;;;;;;;;;;;;;;22.03;44.50;100168.05;1714383;83;20187;-82
2022/06/07 04:05:23;;;;;;;;;;;;;;;22.03;44.34;100172.23;1714441;83;20695;-82
2022/06/07 04:08:30;;;;;;;;;;;;;;;21.92;44.89;100165.13;1713781;83;20621;-81
2022/06/07 04:11:36;;;;;;;;;;;;;;;21.91;45.45;100173.70;1712677;83;20223;-82
2022/06/07 04:14:40;;;;;;;;;;;;;;;21.74;45.26;100178.42;1712731;83;20673;-82
2022/06/07 04:17:46;;;;;;;;;;;;;;;21.62;45.85;100182.70;1714229;83;20613;-82
2022/06/07 04:20:54;;;;;;;;;;;;;;;21.62;45.84;100179.36;1713402;83;20219;-82
2022/06/07 04:24:00;;;;;;;;;;;;;;;21.59;45.81;100172.89;1713360;83;20895;-82
2022/06/07 04:27:05;;;;;;;;;;;;;;;21.43;46.16;100173.73;1714291;83;20624;-82
2022/06/07 04:30:12;;;;;;;;;;;;;;;21.39;47.36;100178.95;1714012;83;20270;-82
2022/06/07 04:33:20;;;;;;;;;;;;;;;21.50;46.95;100180.00;1714291;83;20294;-82
2022/06/07 04:36:28;;;;;;;;;;;;;;;21.59;46.77;100178.47;1715600;83;20216;-82
2022/06/07 04:39:34;;;;;;;;;;;;;;;21.63;47.39;100182.43;1713162;83;20768;-81
2022/06/07 04:42:39;;;;;;;;;;;;;;;21.69;47.35;100180.05;1714264;83;20243;-81
2022/06/07 04:45:48;;;;;;;;;;;;;;;21.81;46.46;100187.47;1725054;82;20190;-82
2022/06/07 04:48:53;;;;;;;;;;;;;;;21.88;46.07;100186.77;1728233;83;20653;-82
2022/06/07 04:51:58;;;;;;;;;;;;;;;21.99;46.24;100192.78;1726528;83;20222;-82
2022/06/07 04:55:05;;;;;;;;;;;;;;;22.12;45.63;100193.02;1725782;83;20226;-81
2022/06/07 04:58:11;;;;;;;;;;;;;;;22.25;45.49;100198.20;1726460;83;20695;-82
2022/06/07 05:01:18;;;;;;;;;;;;;;;22.41;45.53;100191.77;1727085;82;20259;-82
2022/06/07 05:04:25;;;;;;;;;;;;;;;22.59;44.52;100190.63;1727679;83;20242;-82
2022/06/07 05:07:32;;;;;;;;;;;;;;;22.64;44.08;100187.91;1727882;83;20657;-82
2022/06/07 05:10:38;;;;;;;;;;;;;;;22.74;44.37;100196.95;1726144;83;20207;-81
2022/06/07 05:13:44;;;;;;;;;;;;;;;22.89;44.62;100186.56;1727436;83;20557;-82
2022/06/07 05:16:51;;;;;;;;;;;;;;;23.07;43.91;100190.96;1727710;83;20262;-82
2022/06/07 05:19:58;;;;;;;;;;;;;;;23.16;43.09;100188.83;1726112;83;20222;-82
2022/06/07 05:23:02;;;;;;;;;;;;;;;23.20;43.33;100194.73;1726223;83;20210;-82
2022/06/07 05:26:14;;;;;;;;;;;;;;;23.22;43.49;100195.30;1726191;83;20226;-83
2022/06/07 05:29:36;;;;;;;;;;;;;;;23.37;42.56;100201.59;1726304;83;20614;-82
2022/06/07 05:32:48;;;;;;;;;;;;;;;23.48;42.11;100200.61;1727208;82;20224;-82
2022/06/07 05:35:54;;;;;;;;;;;;;;;23.59;42.17;100209.36;1726751;83;20209;-82
2022/06/07 05:39:03;;;;;;;;;;;;;;;23.69;42.53;100208.09;1727299;83;20606;-82
2022/06/07 05:42:06;;;;;;;;;;;;;;;23.82;41.37;100203.18;1726318;83;20957;-82
2022/06/07 05:45:11;;;;;;;;;;;;;;;23.92;41.23;100197.67;1737714;81;20201;-82
2022/06/07 05:48:16;;;;;;;;;;;;;;;24.11;40.83;100204.52;1740919;82;20229;-82
2022/06/07 05:51:21;;;;;;;;;;;;;;;24.22;40.14;100211.02;1741295;82;20241;-82
2022/06/07 05:54:26;;;;;;;;;;;;;;;24.29;40.07;100214.98;1742119;82;20225;-83
2022/06/07 05:57:34;;;;;;;;;;;;;;;24.36;39.27;100212.26;1742011;82;20224;-82
2022/06/07 06:00:31;;;;;;;;;;;;;;;24.44;39.19;100212.31;1723189;82;20235;-82
2022/06/07 06:03:25;;;;;;;;;;;;;;;24.55;38.97;100214.61;1714131;83;20219;-82
2022/06/07 06:06:13;;;;;;;;;;;;;;;24.55;38.33;100214.05;1713995;83;20227;-82
2022/06/07 06:12:25;;;;;;;;;;;;;;;24.63;38.17;100216.34;1712680;83;20262;-82
2022/06/07 06:15:22;;;;;;;;;;;;;;;24.72;37.86;100211.91;1714350;83;20708;-82
2022/06/07 06:18:27;;;;;;;;;;;;;;;24.76;36.93;100213.61;1712335;83;20231;-82
2022/06/07 06:21:34;;;;;;;;;;;;;;;24.80;36.63;100213.36;1713345;83;20377;-82
2022/06/07 06:24:39;;;;;;;;;;;;;;;24.84;35.81;100211.70;1713874;83;20240;-82
2022/06/07 06:27:43;;;;;;;;;;;;;;;24.81;35.10;100215.03;1714327;83;20207;-82
2022/06/07 06:30:51;;;;;;;;;;;;;;;24.72;35.63;100204.08;1714022;83;20210;-82
2022/06/07 06:33:58;;;;;;;;;;;;;;;24.72;34.71;100211.91;1715487;83;20221;-82
2022/06/07 06:37:03;;;;;;;;;;;;;;;24.73;35.49;100208.55;1714626;83;21020;-82
2022/06/07 06:40:08;;;;;;;;;;;;;;;24.81;34.61;100207.20;1713394;83;20273;-82
2022/06/07 06:43:15;;;;;;;;;;;;;;;24.82;35.81;100206.92;1712677;83;20631;-82
2022/06/07 06:46:28;;;;;;;;;;;;;;;24.86;35.42;100198.83;1738346;82;20226;-82
2022/06/07 06:49:32;;;;;;;;;;;;;;;24.85;34.67;100213.37;1733355;82;20226;-82
2022/06/07 06:52:38;;;;;;;;;;;;;;;24.85;34.06;100206.94;1733770;82;20313;-81
2022/06/07 06:55:44;;;;;;;;;;;;;;;24.92;35.58;100204.16;1734729;82;20278;-81
2022/06/07 06:58:52;;;;;;;;;;;;;;;25.01;34.36;100219.02;1730363;82;20670;-81
2022/06/07 07:01:56;;;;;;;;;;;;;;;25.03;34.49;100202.79;1734433;82;20321;-81
2022/06/07 07:05:13;;;;;;;;;;;;;;;24.99;33.37;100220.71;1735800;82;20269;-81
2022/06/07 07:08:21;;;;;;;;;;;;;;;24.92;32.73;100221.50;1693207;83;20219;-81
2022/06/07 07:11:29;;;;;;;;;;;;;;;24.71;33.28;100218.62;1692076;85;20240;-81
2022/06/07 07:14:33;;;;;;;;;;;;;;;24.67;32.97;100218.88;1691233;85;20251;-81
2022/06/07 07:17:39;;;;;;;;;;;;;;;24.74;32.91;100206.87;1691239;83;20250;-81
2022/06/07 07:20:47;;;;;;;;;;;;;;;24.81;32.50;100213.64;1717348;83;20243;-81
2022/06/07 07:23:39;;;;;;;;;;;;;;;24.85;31.88;100213.94;1715779;82;20235;-81
2022/06/07 07:26:50;;;;;;;;;;;;;;;24.89;32.57;100212.25;1720072;83;20283;-82
2022/06/07 07:29:55;;;;;;;;;;;;;;;24.97;33.13;100218.16;1721138;83;20231;-82
2022/06/07 07:33:00;;;;;;;;;;;;;;;25.03;33.68;100213.98;1723100;83;21012;-82
2022/06/07 07:36:10;;;;;;;;;;;;;;;25.05;33.79;100203.37;1722125;83;20290;-81
2022/06/07 07:39:16;;;;;;;;;;;;;;;25.02;33.83;100199.72;1692908;85;20221;-81
2022/06/07 07:42:22;;;;;;;;;;;;;;;25.01;34.21;100205.88;1693234;85;20229;-81
2022/06/07 07:45:30;;;;;;;;;;;;;;;25.01;35.08;100212.87;1693195;85;20205;-81
2022/06/07 07:48:36;;;;;;;;;;;;;;;25.05;35.03;100221.00;1692821;83;20615;-81
2022/06/07 07:51:44;;;;;;;;;;;;;;;25.06;34.36;100212.05;1693006;85;20241;-81
2022/06/07 07:54:51;;;;;;;;;;;;;;;25.09;34.49;100216.58;1692155;85;20575;-81
2022/06/07 07:57:57;;;;;;;;;;;;;;;25.13;34.80;100212.67;1698871;83;20219;-81
2022/06/07 08:01:03;;;;;;;;;;;;;;;25.21;34.59;100197.56;1712351;83;20231;-81
2022/06/07 08:04:10;;;;;;;;;;;;;;;25.33;34.38;100203.48;1677580;85;20225;-81
2022/06/07 08:07:16;;;;;;;;;;;;;;;25.39;34.43;100199.57;1700926;83;20185;-82
2022/06/07 08:10:19;;;;;;;;;;;;;;;25.52;33.75;100210.24;1719798;83;20215;-81
2022/06/07 08:13:26;;;;;;;;;;;;;;;25.58;33.46;100204.92;1692044;85;20437;-81
2022/06/07 08:16:31;;;;;;;;;;;;;;;25.64;32.91;100207.16;1724467;83;20399;-81
2022/06/07 08:19:37;;;;;;;;;;;;;;;25.58;33.57;100195.68;1725084;83;20243;-81
2022/06/07 08:22:41;;;;;;;;;;;;;;;25.61;32.56;100187.56;1704200;83;20216;-81
2022/06/07 08:25:41;;;;;;;;;;;;;;;25.66;32.56;100194.57;1693323;84;20233;-81
2022/06/07 08:28:46;;;;;;;;;;;;;;;25.65;31.75;100197.09;1693656;85;20658;-81
2022/06/07 08:31:51;;;;;;;;;;;;;;;25.68;31.57;100183.91;1705276;83;20633;-81
2022/06/07 08:38:17;;;;;;;;;;;;;;;25.63;32.36;100192.31;1707606;83;20226;-81
2022/06/07 08:41:30;;;;;;;;;;;;;;;25.54;32.02;100181.95;1717089;83;20664;-81
2022/06/07 08:44:38;;;;;;;;;;;;;;;25.53;32.02;100172.71;1704182;83;20594;-82
2022/06/07 08:47:53;;;;;;;;;;;;;;;25.58;31.95;100188.12;1707224;83;20180;-82
2022/06/07 08:51:14;;;;;;;;;;;;;;;25.54;32.90;100171.59;1728323;83;20631;-81
2022/06/07 08:54:24;;;;;;;;;;;;;;;25.55;32.64;100186.42;1712850;83;20847;-81
2022/06/07 08:57:30;;;;;;;;;;;;;;;25.55;32.43;100164.89;1714220;82;20261;-81
2022/06/07 09:00:36;;;;;;;;;;;;;;;25.63;32.67;100164.88;1714574;83;20221;-82
2022/06/07 09:03:48;;;;;;;;;;;;;;;25.72;33.11;100168.80;1713885;83;20695;-82
2022/06/07 09:06:57;;;;;;;;;;;;;;;25.79;32.93;100158.77;1715864;82;20330;-82
2022/06/07 09:13:27;;;;;;;;;;;;;;;25.83;32.09;100156.52;1714614;83;20284;-82
2022/06/07 09:16:32;;;;;;;;;;;;;;;25.94;32.36;100160.98;1716032;83;20221;-82
2022/06/07 09:19:37;;;;;;;;;;;;;;;25.91;32.20;100169.11;1715810;83;20631;-81
2022/06/07 09:22:48;;;;;;;;;;;;;;;25.82;32.49;100155.38;1716220;83;20230;-82
2022/06/07 09:25:56;;;;;;;;;;;;;;;25.82;32.57;100159.59;1716105;83;20242;-81
2022/06/07 09:29:16;;;;;;;;;;;;;;;25.78;32.09;100164.90;1739878;82;20217;-82
2022/06/07 09:32:23;;;;;;;;;;;;;;;25.67;31.82;100159.84;1744782;82;20607;-81
2022/06/07 09:35:43;;;;;;;;;;;;;;;25.62;32.06;100157.60;1714746;83;20223;-81
2022/06/07 09:38:49;;;;;;;;;;;;;;;25.55;32.35;100150.02;1713998;83;20243;-81
2022/06/07 09:41:57;;;;;;;;;;;;;;;25.60;33.25;100152.29;1714289;83;20366;-81
2022/06/07 09:45:21;;;;;;;;;;;;;;;25.76;33.28;100160.72;1714520;83;20262;-81
2022/06/07 09:48:39;;;;;;;;;;;;;;;25.83;31.73;100151.45;1713814;82;20217;-81
2022/06/07 09:51:47;;;;;;;;;;;;;;;25.76;32.21;100144.74;1730209;82;20805;-81
2022/06/07 09:54:54;;;;;;;;;;;;;;;25.78;32.10;100151.45;1744555;82;20258;-81
2022/06/07 09:58:08;;;;;;;;;;;;;;;25.80;32.27;100142.23;1730232;83;20245;-82
2022/06/07 10:01:15;;;;;;;;;;;;;;;25.81;32.03;100153.70;1730507;83;20225;-82
2022/06/07 10:04:36;;;;;;;;;;;;;;;25.79;31.69;100148.96;1705828;83;20248;-82
2022/06/07 10:07:51;;;;;;;;;;;;;;;25.80;32.90;100145.87;1700824;84;20244;-81
2022/06/07 10:11:16;;;;;;;;;;;;;;;25.83;32.30;100143.92;1701737;84;20251;-81
2022/06/07 10:14:43;;;;;;;;;;;;;;;25.95;32.90;100138.00;1707646;83;20273;-81
2022/06/07 10:17:54;;;;;;;;;;;;;;;26.11;32.35;100145.28;1704576;84;20230;-82
2022/06/07 10:21:09;;;;;;;;;;;;;;;26.14;32.26;100139.66;1704634;83;20206;-81
2022/06/07 10:24:34;;;;;;;;;;;;;;;26.07;32.06;100141.36;1706609;84;20218;-81
2022/06/07 10:27:51;;;;;;;;;;;;;;;26.08;32.37;100136.59;1702299;84;20220;-81
2022/06/07 10:31:03;;;;;;;;;;;;;;;26.17;31.63;100132.92;1700360;84;20224;-81
2022/06/07 10:34:10;;;;;;;;;;;;;;;26.20;31.52;100125.89;1701868;84;20240;-81
2022/06/07 10:37:38;;;;;;;;;;;;;;;26.21;31.61;100121.98;1700379;84;20666;-81
2022/06/07 10:40:49;;;;;;;;;;;;;;;26.30;31.82;100122.22;1701479;84;21117;-81
2022/06/07 10:44:16;;;;;;;;;;;;;;;26.26;31.71;100133.19;1701918;84;20638;-81
2022/06/07 10:47:29;;;;;;;;;;;;;;;26.27;31.47;100124.21;1702158;84;20248;-81
2022/06/07 10:50:55;;;;;;;;;;;;;;;26.29;31.08;100123.35;1709959;83;20227;-81
2022/06/07 10:54:00;;;;;;;;;;;;;;;26.21;31.18;100110.22;1714334;84;20248;-81
2022/06/07 10:57:12;;;;;;;;;;;;;;;26.19;31.54;100115.25;1716566;83;20243;-81
2022/06/07 11:00:30;;;;;;;;;;;;;;;26.28;31.50;100109.06;1700983;84;20228;-81
2022/06/07 11:03:38;;;;;;;;;;;;;;;26.34;30.87;100100.91;1717432;83;20614;-81
2022/06/07 11:10:15;;;;;;;;;;;;;;;26.21;31.99;100099.00;1733108;83;20250;-81
2022/06/07 11:13:28;;;;;;;;;;;;;;;26.22;31.92;100097.87;1732100;83;20233;-81
2022/06/07 11:16:54;;;;;;;;;;;;;;;26.35;31.09;100093.63;1730937;83;20297;-81
2022/06/07 11:19:52;;;;;;;;;;;;;;;26.39;31.78;100090.50;1732473;83;20221;-81
2022/06/07 11:23:02;;;;;;;;;;;;;;;26.44;31.25;100092.48;1732785;83;20217;-82
2022/06/07 11:26:14;;;;;;;;;;;;;;;26.39;31.38;100093.88;1731575;83;20212;-81
2022/06/07 11:29:16;;;;;;;;;;;;;;;26.35;31.32;100087.16;1732587;83;20623;-81
2022/06/07 11:32:44;;;;;;;;;;;;;;;26.32;31.36;100084.37;1732787;83;20218;-81
2022/06/07 11:36:16;;;;;;;;;;;;;;;26.20;31.17;100060.86;1731742;83;20616;-81
2022/06/07 11:39:36;;;;;;;;;;;;;;;26.14;31.98;100076.59;1695327;83;20223;-81
2022/06/07 11:42:41;;;;;;;;;;;;;;;26.28;31.86;100084.67;1732129;81;20207;-81
2022/06/07 11:45:50;;;;;;;;;;;;;;;26.40;31.33;100077.34;1731393;83;20282;-81
2022/06/07 11:48:56;;;;;;;;;;;;;;;26.44;31.32;100074.25;1730878;83;20250;-81
2022/06/07 11:52:10;;;;;;;;;;;;;;;26.50;31.75;100080.97;1730075;83;20616;-82
2022/06/07 11:55:18;;;;;;;;;;;;;;;26.51;31.11;100069.19;1732275;83;20219;-82
2022/06/07 11:58:25;;;;;;;;;;;;;;;26.46;31.47;100056.59;1730000;81;20641;-83
2022/06/07 12:01:39;;;;;;;;;;;;;;;26.49;31.17;100064.45;1730961;83;20668;-82
2022/06/07 12:04:55;;;;;;;;;;;;;;;26.46;31.38;100053.80;1731080;81;20223;-82
2022/06/07 12:08:01;;;;;;;;;;;;;;;26.45;31.45;100059.12;1732600;81;20218;-80
2022/06/07 12:11:20;;;;;;;;;;;;;;;26.53;30.88;100058.51;1731991;82;20246;-80
2022/06/07 12:14:49;;;;;;;;;;;;;;;26.54;30.84;100051.80;1729025;83;20223;-81
2022/06/07 12:18:10;;;;;;;;;;;;;;;26.53;30.61;100052.90;1736058;82;20640;-80
2022/06/07 12:21:21;;;;;;;;;;;;;;;26.51;31.25;100046.75;1735229;81;20300;-83
2022/06/07 12:24:24;;;;;;;;;;;;;;;26.50;30.80;100046.48;1730461;81;20214;-82
2022/06/07 12:27:42;;;;;;;;;;;;;;;26.48;30.85;100019.27;1734460;81;20243;-82
2022/06/07 12:30:46;;;;;;;;;;;;;;;26.49;31.41;100025.19;1730253;83;20291;-83
2022/06/07 12:33:59;;;;;;;;;;;;;;;26.48;31.03;100041.14;1730521;83;20235;-81
2022/06/07 12:37:25;;;;;;;;;;;;;;;26.43;31.20;100033.33;1741493;82;20177;-81
2022/06/07 12:40:32;;;;;;;;;;;;;;;26.42;30.76;100026.02;1724551;82;20276;-81
2022/06/07 12:43:37;;;;;;;;;;;;;;;26.44;30.52;100026.58;1742171;81;20179;-81
2022/06/07 12:46:51;;;;;;;;;;;;;;;26.39;30.64;100032.19;1740401;81;20236;-82
2022/06/07 12:49:55;;;;;;;;;;;;;;;26.38;31.51;100029.11;1741463;81;20626;-82
2022/06/07 12:53:00;;;;;;;;;;;;;;;26.39;31.16;100033.59;1743906;81;20241;-82
2022/06/07 12:56:07;;;;;;;;;;;;;;;26.34;31.04;100024.64;1741567;82;20221;-82
2022/06/07 12:59:14;;;;;;;;;;;;;;;26.35;31.19;100032.48;1743139;82;20237;-82
2022/06/07 13:02:25;;;;;;;;;;;;;;;26.36;30.84;100025.77;1726320;82;20701;-82
2022/06/07 13:05:39;;;;;;;;;;;;;;;26.30;31.06;100023.56;1743727;82;20201;-82
2022/06/07 13:08:45;;;;;;;;;;;;;;;26.28;31.27;100016.55;1713756;83;20279;-80
2022/06/07 13:11:52;;;;;;;;;;;;;;;26.29;31.48;100014.86;1709893;82;20228;-82
2022/06/07 13:14:57;;;;;;;;;;;;;;;26.28;31.48;100025.80;1712580;83;20235;-80
2022/06/07 13:18:06;;;;;;;;;;;;;;;26.25;31.25;100023.02;1713423;83;20306;-81
2022/06/07 13:21:25;;;;;;;;;;;;;;;26.21;31.18;100009.30;1714200;83;20220;-81
2022/06/07 13:24:34;;;;;;;;;;;;;;;26.18;31.48;100012.67;1713858;83;20723;-81
2022/06/07 13:27:58;;;;;;;;;;;;;;;26.19;31.64;100010.13;1712885;83;20261;-81
2022/06/07 13:31:02;;;;;;;;;;;;;;;26.22;31.59;100014.34;1707848;84;20664;-81
2022/06/07 13:34:13;;;;;;;;;;;;;;;26.23;31.36;100012.64;1739489;82;20241;-81
2022/06/07 13:37:21;;;;;;;;;;;;;;;26.21;31.29;100010.70;1733656;82;20217;-81
2022/06/07 13:40:34;;;;;;;;;;;;;;;26.20;31.61;100017.41;1706457;83;20235;-81
2022/06/07 13:43:39;;;;;;;;;;;;;;;26.18;31.56;100003.42;1735898;82;20192;-81
2022/06/07 13:46:47;;;;;;;;;;;;;;;26.15;31.32;100013.23;1726867;83;20182;-81
2022/06/07 13:53:26;;;;;;;;;;;;;;;26.11;31.29;99999.55;1721892;83;20226;-81
2022/06/07 13:56:32;;;;;;;;;;;;;;;26.12;31.65;99998.41;1724210;83;20226;-81
2022/06/07 13:59:37;;;;;;;;;;;;;;;26.15;31.46;99997.81;1736356;82;20201;-81
2022/06/07 14:02:48;;;;;;;;;;;;;;;26.16;31.01;99994.45;1736165;82;20658;-81
2022/06/07 14:05:53;;;;;;;;;;;;;;;26.12;30.91;99995.61;1736172;82;20230;-81
2022/06/07 14:08:58;;;;;;;;;;;;;;;26.10;31.93;99992.23;1734753;82;20233;-81
2022/06/07 14:12:05;;;;;;;;;;;;;;;26.11;31.71;99987.47;1725016;82;20236;-81
2022/06/07 14:15:10;;;;;;;;;;;;;;;26.12;31.74;99983.56;1706693;84;20661;-81
2022/06/07 14:18:21;;;;;;;;;;;;;;;26.10;31.69;99987.20;1705273;84;20220;-81
2022/06/07 14:21:24;;;;;;;;;;;;;;;26.09;31.77;99978.52;1706723;84;20255;-81
2022/06/07 14:24:29;;;;;;;;;;;;;;;26.09;32.06;99980.76;1706345;84;20387;-81
2022/06/07 14:27:37;;;;;;;;;;;;;;;26.08;31.45;99981.05;1723525;82;20214;-81
2022/06/07 14:30:42;;;;;;;;;;;;;;;26.04;31.57;99972.38;1734939;82;20201;-81
2022/06/07 14:33:46;;;;;;;;;;;;;;;26.04;31.95;99970.97;1736059;82;20714;-81
2022/06/07 14:36:52;;;;;;;;;;;;;;;26.05;32.54;99984.42;1735082;82;20221;-81
2022/06/07 14:39:56;;;;;;;;;;;;;;;26.06;32.00;99975.72;1734578;82;20650;-81
2022/06/07 14:43:01;;;;;;;;;;;;;;;26.02;31.69;99969.03;1713544;82;20223;-81
2022/06/07 14:46:13;;;;;;;;;;;;;;;25.99;31.89;99971.00;1705794;84;20229;-81
2022/06/07 14:49:21;;;;;;;;;;;;;;;25.97;31.90;99967.62;1707005;84;20240;-81
2022/06/07 14:52:26;;;;;;;;;;;;;;;25.99;32.08;99959.79;1707036;84;20220;-81
2022/06/07 14:55:32;;;;;;;;;;;;;;;25.99;32.21;99962.59;1701403;84;20240;-81
2022/06/07 14:58:36;;;;;;;;;;;;;;;25.98;31.58;99965.96;1699406;84;20563;-81
2022/06/07 15:01:44;;;;;;;;;;;;;;;25.90;32.12;99965.14;1699345;84;20536;-81
2022/06/07 15:04:58;;;;;;;;;;;;;;;25.88;32.51;99963.77;1700845;84;20204;-81
2022/06/07 15:08:15;;;;;;;;;;;;;;;25.86;32.51;99964.59;1700075;84;20483;-81
2022/06/07 15:11:23;;;;;;;;;;;;;;;25.84;32.99;99959.86;1700724;84;20229;-81
2022/06/07 15:14:22;;;;;;;;;;;;;;;25.85;32.68;99958.73;1700975;84;20228;-81
2022/06/07 15:17:29;;;;;;;;;;;;;;;25.81;32.66;99954.25;1700123;84;20224;-81
2022/06/07 15:20:39;;;;;;;;;;;;;;;25.77;32.49;99955.94;1700040;84;20192;-81
2022/06/07 15:23:44;;;;;;;;;;;;;;;25.72;32.67;99956.77;1700081;84;20579;-81
2022/06/07 15:26:50;;;;;;;;;;;;;;;25.71;32.80;99956.50;1700541;84;20243;-81
2022/06/07 15:29:56;;;;;;;;;;;;;;;25.69;32.99;99950.92;1701099;84;20240;-81
2022/06/07 15:33:06;;;;;;;;;;;;;;;25.67;33.45;99953.15;1700375;84;20208;-81
2022/06/07 15:36:07;;;;;;;;;;;;;;;25.63;33.02;99948.67;1662452;84;20227;-81
2022/06/07 15:39:04;;;;;;;;;;;;;;;25.58;33.45;99945.05;1720959;83;20191;-80
2022/06/07 15:45:36;;;;;;;;;;;;;;;25.49;33.64;99957.39;1721402;83;20247;-81
2022/06/07 15:48:44;;;;;;;;;;;;;;;25.43;33.38;99959.94;1719686;83;20219;-81
2022/06/07 15:51:46;;;;;;;;;;;;;;;25.40;33.40;99953.48;1720886;83;20605;-81
2022/06/07 15:54:51;;;;;;;;;;;;;;;25.36;33.29;99957.44;1723809;83;20451;-81
2022/06/07 16:01:11;;;;;;;;;;;;;;;25.29;33.63;99962.47;1731001;83;20198;-81
2022/06/07 16:04:04;;;;;;;;;;;;;;;25.24;33.77;99953.52;1733977;81;20218;-81
2022/06/07 16:07:11;;;;;;;;;;;;;;;25.22;34.06;99957.17;1730774;83;20202;-80
2022/06/07 16:10:18;;;;;;;;;;;;;;;25.18;34.42;99954.66;1729449;83;20290;-81
2022/06/07 16:13:23;;;;;;;;;;;;;;;25.14;34.36;99954.94;1730870;83;20230;-81
2022/06/07 16:16:28;;;;;;;;;;;;;;;25.09;34.39;99960.54;1730809;83;20237;-81
2022/06/07 16:19:35;;;;;;;;;;;;;;;25.04;34.86;99954.08;1729571;83;20229;-81
2022/06/07 16:22:39;;;;;;;;;;;;;;;24.98;34.85;99960.21;1731333;83;20583;-81
2022/06/07 16:25:44;;;;;;;;;;;;;;;24.91;34.95;99961.91;1729723;83;20591;-80
2022/06/07 16:35:34;;;;;;;;;;;;;;;24.74;35.79;99964.95;1761170;81;20618;-81
2022/06/07 16:38:39;;;;;;;;;;;;;;;24.68;36.12;99975.03;1760618;81;20626;-81
2022/06/07 16:41:43;;;;;;;;;;;;;;;24.59;36.45;99970.54;1759727;81;20912;-81